Data for 07/27/2006

Time Sea-Level Adjusted Pressure Absolute Pressure Temperature Relative Humidity Dew Point   
(mb) (inHg) (mb) (inHg) (C) (F) (%) (C) (F)
00:05 1018 30.06 847 25.01 19.9 67.9 40 6.2 43.2
00:10 1018 30.06 847 25.01 19.8 67.6 38 5.4 41.7
00:15 1018 30.06 847 25.01 19.5 67.2 39 5.4 41.7
00:20 1018 30.06 847 25.01 19.8 67.6 38 5.1 41.1
00:25 1018 30.06 847 25.01 19.9 67.8 37 4.8 40.7
00:30 1018 30.06 847 25.01 19.7 67.4 38 5.1 41.2
00:35 1018 30.06 847 25.01 19.9 67.9 37 5 41.1
00:40 1018 30.06 847 25.01 19.7 67.4 37 4.8 40.6
00:45 1018 30.06 847 25.01 19.9 67.8 37 4.8 40.7
00:50 1018 30.06 847 25.01 19.9 67.8 36 4.6 40.3
00:55 1018 30.06 847 25.01 19.6 67.3 38 5 41
01:00 1018 30.06 848 25.04 19.4 67 40 5.5 41.9
01:05 1018 30.06 848 25.04 19 66.1 38 4.4 40
01:10 1018 30.06 848 25.04 19.2 66.6 38 4.7 40.4
01:15 1018 30.06 848 25.04 19 66.1 40 5.4 41.6
01:20 1018 30.06 848 25.04 18.8 65.9 41 5.3 41.6
01:25 1018 30.06 848 25.04 18.6 65.4 42 5.4 41.7
01:30 1018 30.06 848 25.04 18.2 64.7 42 5.3 41.5
01:35 1018 30.06 848 25.04 18 64.4 43 5.5 41.9
01:40 1018 30.06 848 25.04 17.7 63.9 44 5.5 41.9
01:45 1018 30.06 848 25.04 17.5 63.5 51 7.4 45.4
01:50 1018 30.06 848 25.04 17.5 63.4 44 5.4 41.6
01:55 1018 30.06 848 25.04 17.5 63.5 44 5.3 41.6
02:00 1018 30.06 848 25.04 17.3 63.2 47 6.1 43.1
02:05 1018 30.06 848 25.04 17 62.6 47 5.8 42.5
02:10 1018 30.06 848 25.04 16.8 62.3 51 6.7 44.1
02:15 1018 30.06 848 25.04 16.7 62.1 47 5.6 42
02:20 1018 30.06 848 25.04 16.9 62.4 45 5 41
02:25 1018 30.06 848 25.04 17.4 63.4 43 4.9 40.8
02:30 1018 30.06 848 25.04 17.8 64 42 4.9 40.9
02:35 1018 30.06 848 25.04 17.9 64.1 40 4 39.3
02:40 1018 30.06 848 25.04 18.2 64.7 41 4.9 40.8
02:45 1018 30.06 848 25.04 17.7 63.9 42 4.7 40.4
02:50 1018 30.06 848 25.04 17.7 63.9 41 4.4 39.9
02:55 1018 30.06 848 25.04 17.8 64.1 41 4.5 40.1
03:00 1018 30.06 848 25.04 17.5 63.5 41 4.1 39.3
03:05 1018 30.06 848 25.04 17.3 63.1 41 4 39.2
03:10 1018 30.06 848 25.04 17.5 63.5 39 3.4 38.1
03:15 1018 30.06 848 25.04 17.5 63.4 40 4 39.2
03:20 1018 30.06 848 25.04 17.1 62.8 41 3.9 39.1
03:25 1018 30.06 848 25.04 16.9 62.5 41 3.7 38.7
03:30 1018 30.06 848 25.04 17 62.6 40 3.4 38.2
03:35 1019 30.09 848 25.04 17.3 63.1 39 3.1 37.6
03:40 1019 30.09 848 25.04 17.5 63.6 39 3.4 38.2
03:45 1019 30.09 848 25.04 17.7 63.8 37 2.8 37.1
03:50 1019 30.09 848 25.04 17.8 64 36 2.8 37
03:55 1019 30.09 848 25.04 18.4 65.2 34 2.6 36.7
04:00 1019 30.09 848 25.04 18.5 65.3 36 3.2 37.7
04:05 1019 30.09 848 25.04 18.1 64.5 36 2.9 37.2
04:10 1019 30.09 848 25.04 18.1 64.6 39 4 39.3
04:15 1019 30.09 848 25.04 18.2 64.8 35 2.8 37
04:20 1019 30.09 848 25.04 18.2 64.8 35 2.8 37
04:25 1019 30.09 848 25.04 18.2 64.8 38 3.8 38.9
04:30 1019 30.09 848 25.04 18.2 64.8 36 3.1 37.5
04:35 1019 30.09 848 25.04 17.8 64.1 39 3.6 38.5
04:40 1019 30.09 848 25.04 17.4 63.3 40 3.7 38.7
04:45 1019 30.09 848 25.04 17.1 62.8 40 3.7 38.6
04:50 1019 30.09 848 25.04 17 62.6 40 3.3 38
04:55 1019 30.09 848 25.04 17.1 62.7 42 4 39.3
05:00 1019 30.09 848 25.04 17.1 62.8 41 3.8 38.8
05:05 1019 30.09 848 25.04 17.2 62.9 41 3.9 39.1
05:10 1019 30.09 848 25.04 17 62.7 40 3.6 38.4
05:15 1019 30.09 848 25.04 17 62.6 40 3.5 38.3
05:20 1019 30.09 848 25.04 16.5 61.7 42 3.7 38.7
05:25 1019 30.09 848 25.04 16.5 61.6 40 2.8 37
05:30 1019 30.09 848 25.04 17.1 62.7 40 3.5 38.3
05:35 1019 30.09 848 25.04 17.1 62.9 41 3.8 38.9
05:40 1019 30.09 848 25.04 17 62.7 40 3.6 38.5
05:45 1019 30.09 848 25.04 17.2 63 45 5.4 41.8
05:50 1019 30.09 849 25.07 17.2 62.9 41 4 39.2
05:55 1019 30.09 849 25.07 17.3 63.1 38 3.1 37.6
06:00 1019 30.09 849 25.07 17.4 63.3 38 3.2 37.7
06:05 1019 30.09 849 25.07 17.1 62.7 41 3.8 38.8
06:10 1019 30.09 849 25.07 16.5 61.7 44 4.2 39.6
06:15 1020 30.12 849 25.07 16.4 61.5 43 3.8 38.9
06:20 1020 30.12 849 25.07 16.4 61.5 44 4.1 39.4
06:25 1020 30.12 849 25.07 16.3 61.4 43 3.7 38.6
06:30 1020 30.12 849 25.07 16.7 62 40 3.1 37.6
06:35 1020 30.12 849 25.07 17.1 62.8 39 3.2 37.8
06:40 1020 30.12 849 25.07 17.2 63 39 3.2 37.7
06:45 1020 30.12 849 25.07 17.2 63 39 3.2 37.8
06:50 1020 30.12 849 25.07 17.2 62.9 46 5.4 41.8
06:55 1020 30.12 849 25.07 16.7 62 43 4.1 39.5
07:00 1020 30.12 849 25.07 16.4 61.5 43 3.9 39
07:05 1020 30.12 849 25.07 16.6 61.8 43 3.9 39.1
07:10 1020 30.12 849 25.07 16.7 62 46 5 40.9
07:15 1020 30.12 849 25.07 16.7 62 43 4 39.2
07:20 1020 30.12 849 25.07 16.9 62.4 43 4.3 39.7
07:25 1020 30.12 849 25.07 17.2 62.9 46 5.6 42.1
07:30 1020 30.12 849 25.07 17.4 63.2 42 4.4 39.9
07:35 1020 30.12 849 25.07 17.5 63.6 41 4.2 39.6
07:40 1020 30.12 849 25.07 17.7 63.8 43 5 41
07:45 1020 30.12 849 25.07 18.1 64.5 41 4.6 40.2
07:50 1020 30.12 849 25.07 18.2 64.8 43 5.6 42.1
07:55 1020 30.12 849 25.07 18.4 65.1 49 7.6 45.6
08:00 1020 30.12 849 25.07 18.7 65.6 41 5.3 41.5
08:05 1020 30.12 849 25.07 18.9 66 41 5.5 41.8
08:10 1020 30.12 849 25.07 19.3 66.8 42 6.3 43.3
08:15 1020 30.12 849 25.07 19.8 67.7 42 6.6 43.9
08:20 1020 30.12 849 25.07 20.1 68.1 43 7.3 45.2
08:25 1020 30.12 849 25.07 20.2 68.4 40 6.2 43.2
08:30 1020 30.12 849 25.07 20.6 69.1 39 6.5 43.6
08:35 1020 30.12 849 25.07 21.1 70 36 5.7 42.3
08:40 1020 30.12 849 25.07 21.9 71.3 35 5.9 42.6
08:45 1020 30.12 849 25.07 22.5 72.4 32 5.1 41.2
08:50 1020 30.12 849 25.07 22.6 72.6 31 4.7 40.4
08:55 1020 30.12 849 25.07 22.3 72.1 35 6.3 43.4
09:00 1020 30.12 849 25.07 23 73.5 33 6.2 43.1
09:05 1020 30.12 849 25.07 23.9 75.1 31 6.2 43.2
09:10 1020 30.12 849 25.07 24.1 75.3 32 6.5 43.7
09:15 1020 30.12 849 25.07 24.4 75.9 29 5.4 41.7
09:20 1020 30.12 849 25.07 24.8 76.6 29 5.5 42
09:25 1020 30.12 849 25.07 24.8 76.7 27 4.9 40.8
09:30 1020 30.12 849 25.07 25.2 77.4 28 5.4 41.8
09:35 1020 30.12 849 25.07 25.5 77.8 27 5.3 41.6
09:40 1020 30.12 849 25.07 25.9 78.7 27 5.7 42.2
09:45 1020 30.12 849 25.07 26.2 79.2 27 6.2 43.1
09:50 1020 30.12 849 25.07 26.3 79.3 24 4.6 40.3
09:55 1019 30.09 849 25.07 25.9 78.6 24 4.2 39.5
10:00 1019 30.09 849 25.07 26.2 79.2 25 4.7 40.4
10:05 1019 30.09 849 25.07 26.2 79.2 23 3.9 39.1
10:10 1019 30.09 849 25.07 26.8 80.2 22 3.5 38.2
10:15 1019 30.09 849 25.07 27.1 80.7 21 3 37.4
10:20 1019 30.09 849 25.07 27.8 82 21 3.7 38.6
10:25 1019 30.09 848 25.04 28.3 82.9 20 3.5 38.3
10:30 1019 30.09 848 25.04 28.6 83.4 20 3.8 38.9
10:35 1019 30.09 848 25.04 27.9 82.2 23 4.9 40.9
10:40 1019 30.09 848 25.04 27.8 82.1 23 5.1 41.1
10:45 1019 30.09 848 25.04 27.9 82.1 23 5.1 41.2
10:50 1019 30.09 848 25.04 27.8 82 23 5.2 41.3
10:55 1019 30.09 848 25.04 28.2 82.8 23 5.2 41.4
11:00 1019 30.09 848 25.04 28.6 83.5 21 4.7 40.4
11:05 1019 30.09 848 25.04 28.6 83.6 22 5 41
11:10 1019 30.09 848 25.04 28.6 83.4 22 4.8 40.6
11:15 1019 30.09 848 25.04 28.7 83.7 21 4.4 39.9
11:20 1019 30.09 848 25.04 29.1 84.3 21 4.5 40.1
11:25 1019 30.09 848 25.04 28.9 83.9 21 4.4 40
11:30 1019 30.09 848 25.04 29.6 85.3 19 4.1 39.4
11:35 1019 30.09 848 25.04 30.4 86.8 17 2.6 36.7
11:40 1019 30.09 848 25.04 30.3 86.5 19 4.4 40
11:45 1019 30.09 848 25.04 30.1 86.1 18 3.4 38.2
11:50 1019 30.09 848 25.04 30.3 86.5 17 2.5 36.6
11:55 1019 30.09 848 25.04 30.1 86.2 16 2.1 35.8
12:00 1019 30.09 848 25.04 29.7 85.4 16 1.3 34.3
12:05 1019 30.09 848 25.04 29.7 85.4 16 1.1 34
12:10 1019 30.09 848 25.04 30 85.9 16 1.8 35.3
12:15 1019 30.09 848 25.04 29.4 84.8 18 2.9 37.2
12:20 1019 30.09 848 25.04 29.8 85.6 16 1.9 35.4
12:25 1018 30.06 848 25.04 30.2 86.4 18 3.5 38.3
12:30 1018 30.06 848 25.04 30.6 87.1 16 2.2 35.9
12:35 1018 30.06 848 25.04 30.7 87.2 15 1.4 34.5
12:40 1018 30.06 848 25.04 30.6 87 17 3 37.5
12:45 1018 30.06 848 25.04 30.6 87.1 15 1.6 34.9
12:50 1018 30.06 848 25.04 30.3 86.6 16 2 35.6
12:55 1018 30.06 847 25.01 30.3 86.6 16 2 35.7
13:00 1018 30.06 847 25.01 30.4 86.7 16 1.8 35.2
13:05 1018 30.06 847 25.01 30.6 87.1 16 1.9 35.4
13:10 1018 30.06 847 25.01 30.7 87.3 16 2.7 36.9
13:15 1018 30.06 847 25.01 30.7 87.3 15 1.8 35.3
13:20 1018 30.06 847 25.01 30.6 87.2 16 1.9 35.5
13:25 1018 30.06 847 25.01 30.5 86.9 16 2.1 35.8
13:30 1018 30.06 847 25.01 30.1 86.3 16 1.7 35.1
13:35 1018 30.06 847 25.01 31 87.8 14 1.2 34.1
13:40 1018 30.06 847 25.01 31.4 88.6 15 2.5 36.4
13:45 1018 30.06 847 25.01 31.7 89 15 2.7 36.8
13:50 1018 30.06 847 25.01 31.9 89.5 15 2.4 36.4
13:55 1018 30.06 847 25.01 32.3 90.1 15 2.9 37.3
14:00 1018 30.06 847 25.01 31.8 89.2 14 1.7 35.1
14:05 1018 30.06 847 25.01 31.2 88.2 15 2.3 36.1
14:10 1018 30.06 847 25.01 31.9 89.5 15 2.3 36.1
14:15 1018 30.06 847 25.01 32.7 90.8 14 2.2 36
14:20 1018 30.06 847 25.01 31.6 88.9 16 2.8 37.1
14:25 1018 30.06 847 25.01 31.6 88.9 15 2.5 36.5
14:30 1017 30.03 847 25.01 31.4 88.4 15 1.9 35.4
14:35 1017 30.03 847 25.01 31.6 88.8 15 2.2 35.9
14:40 1017 30.03 847 25.01 32.4 90.3 14 2.2 36
14:45 1017 30.03 847 25.01 32.5 90.4 14 2.2 36
14:50 1017 30.03 846 24.98 32.6 90.7 15 2.6 36.8
14:55 1017 30.03 846 24.98 32.1 89.8 15 2.2 36
15:00 1017 30.03 846 24.98 32.5 90.4 15 2.7 36.8
15:05 1017 30.03 846 24.98 33.1 91.5 15 3.2 37.8
15:10 1017 30.03 846 24.98 33 91.3 15 3.2 37.8
15:15 1017 30.03 846 24.98 33.5 92.2 14 3.2 37.7
15:20 1017 30.03 846 24.98 33.7 92.6 14 2.8 37
15:25 1017 30.03 846 24.98 33.6 92.4 15 3.6 38.4
15:30 1017 30.03 846 24.98 33.7 92.6 14 3 37.3
15:35 1017 30.03 846 24.98 33.6 92.5 14 2.7 36.8
15:40 1017 30.03 846 24.98 33.5 92.3 14 2.9 37.2
15:45 1017 30.03 846 24.98 34.2 93.5 14 3.5 38.3
15:50 1017 30.03 846 24.98 34.1 93.3 14 2.8 37
15:55 1016 30 846 24.98 33.3 92 14 2.8 37
16:00 1016 30 846 24.98 33.3 92 14 2.5 36.5
16:05 1016 30 846 24.98 33.5 92.3 14 2.8 37
16:10 1016 30 846 24.98 33.9 93.1 14 2.7 36.9
16:15 1016 30 845 24.95 34.4 94 14 3.1 37.5
16:20 1016 30 845 24.95 34.5 94 13 2.7 36.9
16:25 1016 30 845 24.95 34 93.2 14 3.4 38.2
16:30 1016 30 845 24.95 34 93.2 14 2.8 37.1
16:35 1016 30 845 24.95 34.1 93.4 14 3 37.3
16:40 1016 30 845 24.95 34.2 93.6 14 3.3 37.9
16:45 1016 30 845 24.95 34.3 93.8 14 3.3 38
16:50 1016 30 845 24.95 34.6 94.2 13 2.4 36.4
16:55 1016 30 845 24.95 34.7 94.4 13 2.5 36.6
17:00 1016 30 845 24.95 34 93.1 14 2.8 37
17:05 1016 30 845 24.95 34.2 93.6 14 3 37.4
17:10 1016 30 845 24.95 34.2 93.6 13 2.6 36.6
17:15 1016 30 845 24.95 34.2 93.5 13 2.7 36.9
17:20 1016 30 845 24.95 34.3 93.7 13 2.5 36.5
17:25 1016 30 845 24.95 34.4 94 14 3.1 37.5
17:30 1016 30 845 24.95 34.3 93.7 13 2.7 36.8
17:35 1016 30 845 24.95 34.1 93.4 13 2.7 36.8
17:40 1016 30 845 24.95 34.4 93.9 13 2.5 36.5
17:45 1016 30 845 24.95 34.4 93.8 14 3.2 37.8
17:50 1016 30 845 24.95 33.8 92.9 13 2.3 36.1
17:55 1016 30 845 24.95 33.8 92.9 14 3 37.4
18:00 1016 30 845 24.95 33.7 92.7 13 2.1 35.8
18:05 1016 30 845 24.95 33.9 93 13 1.9 35.4
18:10 1016 30 845 24.95 33.4 92.1 13 1.8 35.2
18:15 1016 30 845 24.95 33.7 92.6 13 2 35.6
18:20 1016 30 845 24.95 33.6 92.5 13 1.8 35.2
18:25 1016 30 845 24.95 33.4 92.1 13 2.1 35.7
18:30 1016 30 845 24.95 33.7 92.6 13 2 35.6
18:35 1016 30 845 24.95 33.8 92.8 13 2.2 35.9
18:40 1016 30 845 24.95 33.6 92.5 13 1.6 34.8
18:45 1015 29.97 845 24.95 33.2 91.8 13 1.7 35
18:50 1015 29.97 845 24.95 33.2 91.7 14 2.4 36.2
18:55 1015 29.97 845 24.95 33.4 92.2 13 1.3 34.3
19:00 1015 29.97 845 24.95 33.4 92.1 13 1.6 35
19:05 1015 29.97 845 24.95 33.3 92 13 1.2 34.1
19:10 1015 29.97 845 24.95 33.5 92.3 13 2.1 35.7
19:15 1015 29.97 845 24.95 33.4 92.1 13 1.9 35.5
19:20 1015 29.97 845 24.95 32.8 91 13 1.4 34.6
19:25 1015 29.97 845 24.95 32.5 90.5 14 1.7 35.1
19:30 1015 29.97 845 24.95 32.4 90.3 15 3.1 37.6
19:35 1015 29.97 845 24.95 32.3 90.2 15 2.4 36.3
19:40 1015 29.97 845 24.95 32.3 90.1 14 2 35.5
19:45 1015 29.97 845 24.95 32.2 89.9 14 2.2 35.9
19:50 1015 29.97 845 24.95 32 89.6 16 3.1 37.5
19:55 1015 29.97 845 24.95 31.8 89.2 17 3.9 39
20:00 1015 29.97 845 24.95 31.7 89.1 20 6.1 43
20:05 1015 29.97 845 24.95 31.3 88.4 21 6.8 44.2
20:10 1015 29.97 845 24.95 30.9 87.5 21 6.6 43.9
20:15 1015 29.97 845 24.95 30.7 87.2 23 7.4 45.4
20:20 1016 30 845 24.95 30.6 87.1 20 5.7 42.3
20:25 1016 30 845 24.95 30.5 86.9 23 7.3 45.2
20:30 1016 30 845 24.95 30 86 29 10.4 50.8
20:35 1016 30 845 24.95 29.2 84.6 26 8.3 46.9
20:40 1016 30 845 24.95 28.5 83.2 27 8.1 46.5
20:45 1016 30 845 24.95 28 82.4 27 7.5 45.6
20:50 1016 30 845 24.95 27.5 81.4 26 6.7 44
20:55 1016 30 845 24.95 26.9 80.4 28 6.9 44.4
21:00 1016 30 845 24.95 26.7 80 30 7.9 46.2
21:05 1016 30 845 24.95 26.3 79.4 28 6.6 43.9
21:10 1016 30 845 24.95 26 78.7 29 6.7 44.1
21:15 1016 30 845 24.95 25.6 78 30 6.8 44.2
21:20 1016 30 845 24.95 25.3 77.5 32 7.7 45.9
21:25 1016 30 845 24.95 25.1 77.1 31 6.8 44.2
21:30 1016 30 845 24.95 25 77 30 6.3 43.3
21:35 1016 30 845 24.95 24.8 76.7 29 6 42.9
21:40 1016 30 845 24.95 24.8 76.6 29 6 42.8
21:45 1016 30 845 24.95 24.5 76.1 30 5.8 42.5
21:50 1016 30 845 24.95 24.3 75.7 30 6.1 42.9
21:55 1016 30 845 24.95 23.8 74.8 30 5.3 41.5
22:00 1016 30 845 24.95 23.8 74.8 29 5.1 41.2
22:05 1016 30 845 24.95 24.2 75.5 27 4.2 39.5
22:10 1016 30 845 24.95 24 75.1 27 4.1 39.4
22:15 1016 30 845 24.95 23.6 74.5 28 4.2 39.6
22:20 1016 30 846 24.98 23.4 74.1 28 4.3 39.7
22:25 1016 30 846 24.98 23.3 74 28 4.2 39.6
22:30 1016 30 846 24.98 23.9 75 26 3.4 38.2
22:35 1017 30.03 846 24.98 24.7 76.5 26 4 39.2
22:40 1017 30.03 846 24.98 24 75.2 30 5.8 42.4
22:45 1017 30.03 846 24.98 23.6 74.4 30 5.1 41.2
22:50 1017 30.03 846 24.98 23.3 73.9 31 5.4 41.8
22:55 1017 30.03 846 24.98 23.2 73.8 32 5.8 42.4
23:00 1017 30.03 846 24.98 23.2 73.7 32 5.7 42.2
23:05 1017 30.03 846 24.98 23 73.3 33 6.2 43.1
23:10 1017 30.03 846 24.98 22.6 72.7 34 6.2 43.2
23:15 1017 30.03 846 24.98 21.7 71.1 36 6.3 43.4
23:20 1017 30.03 846 24.98 21.4 70.5 33 4.5 40.1
23:25 1017 30.03 846 24.98 21.9 71.5 32 4.6 40.3
23:30 1017 30.03 846 24.98 22 71.6 33 5.4 41.7
23:35 1017 30.03 846 24.98 22 71.5 33 5.1 41.1
23:40 1017 30.03 846 24.98 22.1 71.9 32 4.7 40.4
23:45 1017 30.03 846 24.98 22.3 72.2 32 4.9 40.8
23:50 1017 30.03 846 24.98 22.4 72.2 31 4.5 40.2
23:55 1017 30.03 846 24.98 22.7 72.8 32 5.2 41.3
24:00 1017 30.03 846 24.98 22 71.7 33 5.4 41.7